createdAt,value
2022-08-19T10:33:04.370Z,100009.16
2022-08-19T10:36:19.232Z,100002.16
2022-08-19T10:39:23.530Z,99991.56
2022-08-19T10:42:27.815Z,100004.44
2022-08-19T10:45:32.013Z,100011.88
2022-08-19T10:48:37.647Z,100011.00
2022-08-19T10:52:00.633Z,100028.50
2022-08-19T10:55:25.389Z,100025.09
2022-08-19T10:58:33.472Z,100020.13
2022-08-19T11:01:37.707Z,100019.59
2022-08-19T11:04:41.975Z,100011.97
2022-08-19T11:07:46.293Z,100016.09
2022-08-19T11:10:50.666Z,100009.75
2022-08-19T11:13:55.505Z,100011.19
2022-08-19T11:16:59.763Z,100014.44
2022-08-19T11:20:06.392Z,100026.22
2022-08-19T11:23:10.109Z,100029.63
2022-08-19T11:26:15.719Z,100025.00
2022-08-19T11:29:22.265Z,100037.69
2022-08-19T11:32:26.197Z,100033.31
2022-08-19T11:35:30.377Z,100038.97
2022-08-19T11:38:36.285Z,100050.69
2022-08-19T11:41:41.094Z,100040.19
2022-08-19T11:44:44.806Z,100055.50
2022-08-19T11:47:48.852Z,100047.94
2022-08-19T11:50:56.339Z,100061.03
2022-08-19T11:54:00.970Z,100051.25
2022-08-19T11:57:05.078Z,100056.69
2022-08-19T12:00:12.597Z,100053.06
2022-08-19T12:03:16.689Z,100041.13
2022-08-19T12:06:34.896Z,100038.88
2022-08-19T12:09:42.805Z,100037.84
2022-08-19T12:12:47.377Z,100025.31
2022-08-19T12:15:57.995Z,100028.00
2022-08-19T12:19:04.736Z,100014.00
2022-08-19T12:22:09.384Z,100021.38
2022-08-19T12:25:13.343Z,100015.69
2022-08-19T12:28:18.970Z,100004.00
2022-08-19T12:31:22.938Z,100001.22
2022-08-19T12:34:30.878Z,99996.88
2022-08-19T12:37:34.876Z,99988.41
2022-08-19T12:40:40.947Z,99986.81
2022-08-19T12:43:45.965Z,99989.72
2022-08-19T12:46:50.409Z,100008.56
2022-08-19T12:49:58.248Z,100000.00
2022-08-19T12:53:02.640Z,100003.88
2022-08-19T12:56:12.140Z,100000.34
2022-08-19T12:59:18.551Z,99999.88
2022-08-19T13:02:23.446Z,100004.81
2022-08-19T13:05:30.679Z,100009.72
2022-08-19T13:08:34.430Z,100006.88
2022-08-19T13:11:38.963Z,100017.50
2022-08-19T13:14:43.429Z,100017.69
2022-08-19T13:17:51.987Z,100026.31
2022-08-19T13:20:57.366Z,100006.38
2022-08-19T13:24:01.796Z,100016.00
2022-08-19T13:27:05.919Z,100011.75
2022-08-19T13:30:31.533Z,100019.53
2022-08-19T13:33:36.464Z,100020.03
2022-08-19T13:36:40.560Z,100041.75
2022-08-19T13:39:45.976Z,100036.03
2022-08-19T13:42:52.814Z,100041.13
2022-08-19T13:45:57.685Z,100042.59
2022-08-19T13:49:01.988Z,100045.84
2022-08-19T13:52:06.720Z,100049.41
2022-08-19T13:55:12.277Z,100042.16
2022-08-19T13:58:16.186Z,100039.78
2022-08-19T14:01:24.345Z,100047.00
2022-08-19T14:04:28.805Z,100053.72
2022-08-19T14:07:33.052Z,100049.28
2022-08-19T14:10:37.308Z,100045.38
2022-08-19T14:13:41.994Z,100046.94
2022-08-19T14:16:46.014Z,100045.38
2022-08-19T14:19:50.454Z,100023.69
2022-08-19T14:22:55.676Z,100029.69
2022-08-19T14:26:08.346Z,100031.03
2022-08-19T14:29:13.530Z,100036.50
2022-08-19T14:32:17.763Z,100034.91
2022-08-19T14:35:25.871Z,100035.38
2022-08-19T14:38:32.361Z,100037.78
2022-08-19T14:41:36.898Z,100043.00
2022-08-19T14:44:41.806Z,100038.41
2022-08-19T14:47:46.172Z,100033.56
2022-08-19T14:50:50.315Z,100027.06
2022-08-19T14:53:54.827Z,100025.47
2022-08-19T14:56:58.891Z,100019.31
2022-08-19T15:00:04.576Z,100023.97
2022-08-19T15:03:08.420Z,100020.09
2022-08-19T15:06:12.924Z,100024.47
2022-08-19T15:09:17.404Z,100028.91
2022-08-19T15:12:22.876Z,100038.78
2022-08-19T15:15:27.223Z,100037.47
2022-08-19T15:18:31.530Z,100048.78
2022-08-19T15:21:37.215Z,100052.28
2022-08-19T15:24:47.926Z,100048.13
2022-08-19T15:27:53.846Z,100053.69
2022-08-19T15:30:57.917Z,100045.69
2022-08-19T15:34:02.985Z,100021.59
2022-08-19T15:37:07.538Z,100026.47
2022-08-19T15:40:12.590Z,100035.03
2022-08-19T15:43:18.737Z,100038.13
2022-08-19T15:46:28.247Z,100047.09
2022-08-19T15:49:33.250Z,100037.75
2022-08-19T15:52:37.045Z,100044.50
2022-08-19T15:55:52.680Z,100035.72
2022-08-19T15:59:15.458Z,100025.75
2022-08-19T16:02:39.849Z,100027.31
2022-08-19T16:06:02.568Z,100040.75
2022-08-19T16:09:06.909Z,100038.41
2022-08-19T16:12:11.063Z,100037.16
2022-08-19T16:15:15.160Z,100036.31
2022-08-19T16:18:19.084Z,100032.09
2022-08-19T16:21:26.076Z,100041.84
2022-08-19T16:24:30.346Z,100035.09
2022-08-19T16:27:34.837Z,100027.88
2022-08-19T16:30:39.927Z,100024.25
2022-08-19T16:33:43.812Z,100023.75
2022-08-19T16:36:48.491Z,100017.81
2022-08-19T16:39:52.627Z,100018.13
2022-08-19T16:42:56.936Z,100014.28
2022-08-19T16:46:01.530Z,100014.16
2022-08-19T16:49:05.868Z,100016.28
2022-08-19T16:52:10.335Z,100008.50
2022-08-19T16:55:14.771Z,100012.88
2022-08-19T16:58:20.563Z,100021.59
2022-08-19T17:01:32.425Z,100027.47
2022-08-19T17:04:36.397Z,100042.94
2022-08-19T17:07:39.904Z,100036.69
2022-08-19T17:10:56.857Z,100047.28
2022-08-19T17:14:08.674Z,100040.78
2022-08-19T17:17:12.987Z,100044.34
2022-08-19T17:20:17.159Z,100043.53
2022-08-19T17:23:42.438Z,100041.69
2022-08-19T17:26:47.478Z,100041.13
2022-08-19T17:29:53.132Z,100031.28
2022-08-19T17:32:57.746Z,100025.50
2022-08-19T17:36:04.203Z,100016.63
2022-08-19T17:39:08.628Z,100020.50
2022-08-19T17:42:12.466Z,100022.22
2022-08-19T17:45:17.794Z,100034.31
2022-08-19T17:48:22.031Z,100032.78
2022-08-19T17:51:42.148Z,100041.06
2022-08-19T17:54:46.407Z,100026.66
2022-08-19T17:57:51.203Z,100037.78
2022-08-19T18:00:55.467Z,100035.75
2022-08-19T18:04:01.636Z,100037.28
2022-08-19T18:07:06.841Z,100041.59
2022-08-19T18:10:11.823Z,100030.53
2022-08-19T18:13:17.417Z,100025.53
2022-08-19T18:16:22.192Z,100017.50
2022-08-19T18:19:29.476Z,100027.97
2022-08-19T18:22:48.473Z,100041.28
2022-08-19T18:25:52.666Z,100029.16
2022-08-19T18:28:57.228Z,100036.13
2022-08-19T18:32:01.317Z,100042.56
2022-08-19T18:35:11.764Z,100051.56
2022-08-19T18:38:37.267Z,100053.38
2022-08-19T18:41:59.947Z,100062.09
2022-08-19T18:45:24.300Z,100071.34
2022-08-19T18:48:47.039Z,100085.22
2022-08-19T18:51:51.623Z,100081.25
2022-08-19T18:54:55.320Z,100090.59
2022-08-19T18:57:59.309Z,100099.56
2022-08-19T19:01:11.500Z,100108.06
2022-08-19T19:04:21.715Z,100111.50
2022-08-19T19:07:26.350Z,100108.44
2022-08-19T19:10:30.180Z,100097.69
2022-08-19T19:13:37.496Z,100116.50
2022-08-19T19:16:45.779Z,100122.16
2022-08-19T19:19:51.272Z,100116.19
2022-08-19T19:22:56.045Z,100106.13
2022-08-19T19:26:02.438Z,100116.66
2022-08-19T19:29:06.661Z,100118.47
2022-08-19T19:32:18.424Z,100121.06
2022-08-19T19:35:22.734Z,100127.78
2022-08-19T19:38:26.949Z,100125.19
2022-08-19T19:41:33.019Z,100119.25
2022-08-19T19:44:41.287Z,100112.53
2022-08-19T19:47:51.386Z,100101.66
2022-08-19T19:50:56.504Z,100098.84
2022-08-19T19:54:01.854Z,100103.00
2022-08-19T19:57:06.100Z,100106.84
2022-08-19T20:00:15.258Z,100108.66
2022-08-19T20:03:20.771Z,100098.56
2022-08-19T20:06:24.614Z,100102.22
2022-08-19T20:09:49.650Z,100108.41
2022-08-19T20:12:54.796Z,100105.75
2022-08-19T20:15:59.358Z,100118.09
2022-08-19T20:19:03.639Z,100122.91
2022-08-19T20:22:07.685Z,100129.09
2022-08-19T20:25:12.636Z,100125.75
2022-08-19T20:28:17.437Z,100134.03
2022-08-19T20:31:22.096Z,100125.28
2022-08-19T20:34:27.407Z,100119.88
2022-08-19T20:37:31.720Z,100121.38
2022-08-19T20:40:36.644Z,100127.00
2022-08-19T20:43:40.942Z,100130.28
2022-08-19T20:46:54.225Z,100123.31
2022-08-19T20:49:59.742Z,100123.78
2022-08-19T20:53:15.007Z,100125.59
2022-08-19T20:56:19.029Z,100129.75
2022-08-19T20:59:23.977Z,100120.03
2022-08-19T21:02:27.926Z,100123.19
2022-08-19T21:05:32.001Z,100117.94
2022-08-19T21:08:37.177Z,100120.22
2022-08-19T21:11:41.473Z,100123.78
2022-08-19T21:14:47.091Z,100132.00
2022-08-19T21:17:51.911Z,100123.94
2022-08-19T21:20:56.286Z,100128.03
2022-08-19T21:24:01.205Z,100135.44
2022-08-19T21:27:05.641Z,100135.44
2022-08-19T21:30:10.455Z,100137.91
2022-08-19T21:33:15.032Z,100146.19
2022-08-19T21:36:20.473Z,100145.88
2022-08-19T21:39:24.815Z,100158.69
2022-08-19T21:42:29.254Z,100168.22
2022-08-19T21:45:33.783Z,100162.50
2022-08-19T21:48:37.905Z,100150.41
2022-08-19T21:51:42.062Z,100152.19
2022-08-19T21:54:46.024Z,100151.19
2022-08-19T21:57:50.112Z,100146.03
2022-08-19T22:00:54.330Z,100142.69
2022-08-19T22:03:58.935Z,100132.97
2022-08-19T22:07:03.218Z,100145.06
2022-08-19T22:10:07.995Z,100138.81
2022-08-19T22:13:11.768Z,100140.72
2022-08-19T22:16:17.965Z,100133.94
2022-08-19T22:19:21.694Z,100132.38
2022-08-19T22:22:29.670Z,100121.50
2022-08-19T22:25:38.060Z,100126.78
2022-08-19T22:28:42.782Z,100118.72
2022-08-19T22:31:54.311Z,100112.72
2022-08-19T22:35:00.553Z,100121.34
2022-08-19T22:38:07.112Z,100123.31
2022-08-19T22:41:11.578Z,100124.34
2022-08-19T22:44:15.625Z,100128.72
2022-08-19T22:47:19.775Z,100126.59
2022-08-19T22:50:24.335Z,100137.38
2022-08-19T22:53:28.379Z,100132.91
2022-08-19T22:56:32.158Z,100143.53
2022-08-19T22:59:36.197Z,100138.63
2022-08-19T23:02:52.356Z,100146.47
2022-08-19T23:05:56.839Z,100143.88
2022-08-19T23:09:01.420Z,100156.31
2022-08-19T23:12:08.616Z,100156.06
2022-08-19T23:15:19.702Z,100166.03
2022-08-19T23:18:24.011Z,100167.81
2022-08-19T23:21:28.117Z,100159.13
2022-08-19T23:24:31.866Z,100151.84
2022-08-19T23:27:54.856Z,100154.31
2022-08-19T23:30:58.897Z,100157.34
2022-08-19T23:34:05.843Z,100164.72
2022-08-19T23:37:09.709Z,100161.13
2022-08-19T23:40:16.298Z,100160.91
2022-08-19T23:43:24.466Z,100161.13
2022-08-19T23:46:29.410Z,100159.59
2022-08-19T23:49:35.623Z,100154.06
2022-08-19T23:52:54.801Z,100152.63
2022-08-19T23:55:58.871Z,100153.44
2022-08-19T23:59:02.920Z,100155.00
